createdAt,value
2022-10-10T00:00:49.896Z,67.33
2022-10-10T00:03:19.192Z,67.41
2022-10-10T00:05:48.597Z,67.59
2022-10-10T00:08:16.613Z,67.53
2022-10-10T00:10:44.645Z,67.29
2022-10-10T00:13:12.662Z,67.20
2022-10-10T00:15:40.662Z,68.13
2022-10-10T00:18:09.049Z,68.18
2022-10-10T00:20:37.143Z,68.46
2022-10-10T00:23:06.500Z,68.02
2022-10-10T00:25:34.557Z,68.29
2022-10-10T00:28:03.399Z,68.27
2022-10-10T00:30:31.689Z,68.22
2022-10-10T00:33:00.074Z,68.04
2022-10-10T00:35:28.724Z,68.06
2022-10-10T00:37:56.861Z,67.29
2022-10-10T00:40:26.538Z,67.83
2022-10-10T00:42:54.618Z,67.59
2022-10-10T00:45:29.434Z,67.79
2022-10-10T00:48:00.939Z,67.86
2022-10-10T00:50:30.085Z,68.13
2022-10-10T00:52:59.222Z,67.89
2022-10-10T00:55:28.879Z,67.99
2022-10-10T00:57:57.018Z,68.41
2022-10-10T01:00:25.049Z,68.74
2022-10-10T01:02:53.318Z,68.96
2022-10-10T01:05:21.720Z,69.74
2022-10-10T01:07:49.786Z,69.36
2022-10-10T01:10:19.321Z,69.60
2022-10-10T01:12:57.812Z,70.21
2022-10-10T01:15:30.568Z,69.80
2022-10-10T01:18:03.004Z,69.56
2022-10-10T01:20:54.481Z,69.90
2022-10-10T01:23:36.851Z,70.35
2022-10-10T01:26:17.713Z,70.30
2022-10-10T01:28:52.422Z,70.40
2022-10-10T01:31:23.518Z,70.23
2022-10-10T01:33:58.187Z,70.51
2022-10-10T01:36:33.534Z,70.27
2022-10-10T01:39:06.875Z,71.18
2022-10-10T01:41:38.527Z,71.19
2022-10-10T01:44:07.901Z,71.26
2022-10-10T01:46:35.952Z,71.73
2022-10-10T01:49:04.380Z,71.69
2022-10-10T01:51:47.649Z,72.03
2022-10-10T01:54:25.991Z,73.39
2022-10-10T01:57:01.262Z,72.73
2022-10-10T01:59:42.038Z,72.24
2022-10-10T02:02:17.427Z,72.10
2022-10-10T02:04:49.185Z,72.51
2022-10-10T02:07:20.610Z,72.39
2022-10-10T02:09:48.961Z,72.84
2022-10-10T02:12:17.429Z,72.94
2022-10-10T02:14:48.983Z,72.58
2022-10-10T02:17:18.182Z,73.11
2022-10-10T02:19:48.355Z,73.52
2022-10-10T02:22:16.531Z,73.23
2022-10-10T02:24:44.720Z,73.15
2022-10-10T02:27:15.979Z,73.42
2022-10-10T02:29:46.268Z,72.88
2022-10-10T02:32:18.577Z,73.69
2022-10-10T02:34:51.001Z,73.30
2022-10-10T02:37:19.766Z,72.90
2022-10-10T02:39:51.541Z,73.89
2022-10-10T02:42:21.994Z,74.43
2022-10-10T02:44:51.814Z,74.43
2022-10-10T02:47:20.150Z,74.36
2022-10-10T02:49:49.060Z,75.15
2022-10-10T02:52:17.841Z,74.36
2022-10-10T02:54:45.878Z,74.45
2022-10-10T02:57:14.150Z,74.81
2022-10-10T02:59:42.357Z,75.58
2022-10-10T03:02:11.788Z,75.55
2022-10-10T03:04:40.135Z,74.59
2022-10-10T03:07:08.189Z,74.46
2022-10-10T03:09:36.254Z,74.82
2022-10-10T03:12:04.490Z,74.85
2022-10-10T03:14:32.543Z,74.50
2022-10-10T03:17:00.780Z,74.46
2022-10-10T03:19:30.160Z,74.11
2022-10-10T03:21:58.212Z,73.89
2022-10-10T03:24:26.612Z,73.20
2022-10-10T03:26:54.640Z,73.41
2022-10-10T03:29:22.731Z,73.20
2022-10-10T03:31:51.645Z,72.50
2022-10-10T03:34:19.683Z,72.65
2022-10-10T03:36:49.090Z,72.52
2022-10-10T03:39:17.107Z,72.89
2022-10-10T03:41:45.400Z,72.45
2022-10-10T03:44:13.474Z,72.29
2022-10-10T03:46:41.533Z,71.79
2022-10-10T03:49:09.554Z,71.64
2022-10-10T03:51:37.614Z,71.80
2022-10-10T03:54:07.118Z,71.55
2022-10-10T03:56:35.170Z,71.90
2022-10-10T03:59:04.027Z,71.14
2022-10-10T04:01:32.261Z,70.42
2022-10-10T04:04:00.400Z,70.98
2022-10-10T04:06:28.708Z,70.53
2022-10-10T04:08:56.930Z,70.66
2022-10-10T04:11:26.537Z,70.20
2022-10-10T04:13:54.554Z,69.64
2022-10-10T04:16:22.550Z,70.32
2022-10-10T04:18:50.593Z,70.33
2022-10-10T04:21:18.662Z,69.60
2022-10-10T04:23:46.755Z,69.74
2022-10-10T04:26:14.804Z,70.17
2022-10-10T04:28:44.229Z,69.79
2022-10-10T04:31:12.229Z,70.33
2022-10-10T04:33:40.249Z,69.62
2022-10-10T04:36:08.598Z,69.22
2022-10-10T04:38:37.360Z,69.49
2022-10-10T04:41:05.628Z,69.23
2022-10-10T04:43:33.686Z,69.53
2022-10-10T04:46:03.579Z,69.97
2022-10-10T04:48:31.662Z,69.26
2022-10-10T04:51:00.896Z,70.05
2022-10-10T04:53:29.019Z,69.63
2022-10-10T04:55:57.034Z,69.24
2022-10-10T04:58:25.111Z,69.49
2022-10-10T05:00:53.852Z,70.56
2022-10-10T05:03:24.229Z,70.91
2022-10-10T05:05:52.461Z,70.08
2022-10-10T05:08:21.124Z,70.00
2022-10-10T05:10:49.642Z,69.90
2022-10-10T05:13:17.848Z,70.00
2022-10-10T05:15:46.048Z,70.69
2022-10-10T05:18:14.044Z,70.22
2022-10-10T05:20:44.041Z,70.65
2022-10-10T05:23:12.079Z,70.62
2022-10-10T05:25:40.133Z,70.42
2022-10-10T05:28:08.224Z,70.82
2022-10-10T05:30:36.230Z,70.50
2022-10-10T05:33:04.235Z,70.17
2022-10-10T05:35:32.297Z,69.51
2022-10-10T05:38:01.744Z,70.00
2022-10-10T05:40:29.833Z,70.45
2022-10-10T05:42:58.245Z,71.13
2022-10-10T05:45:26.286Z,70.41
2022-10-10T05:47:54.298Z,70.74
2022-10-10T05:50:31.685Z,71.01
2022-10-10T05:53:01.351Z,70.87
2022-10-10T05:55:29.753Z,70.40
2022-10-10T05:57:57.813Z,71.15
2022-10-10T06:00:25.883Z,70.99
2022-10-10T06:02:54.528Z,71.33
2022-10-10T06:05:22.918Z,71.29
2022-10-10T06:08:05.775Z,71.13
2022-10-10T06:10:42.059Z,70.97
2022-10-10T06:13:10.317Z,71.08
2022-10-10T06:15:38.404Z,70.57
2022-10-10T06:18:06.894Z,70.38
2022-10-10T06:20:36.290Z,70.75
2022-10-10T06:23:04.379Z,69.64
2022-10-10T06:25:42.199Z,69.71
2022-10-10T06:28:12.253Z,70.14
2022-10-10T06:30:44.239Z,69.74
2022-10-10T06:33:13.278Z,70.06
2022-10-10T06:35:42.824Z,70.11
2022-10-10T06:38:10.907Z,69.78
2022-10-10T06:40:39.335Z,68.94
2022-10-10T06:43:11.535Z,69.30
2022-10-10T06:45:42.198Z,68.91
2022-10-10T06:48:10.956Z,68.95
2022-10-10T06:50:39.163Z,69.46
2022-10-10T06:53:07.348Z,69.53
2022-10-10T06:55:35.392Z,68.71
2022-10-10T06:58:03.468Z,68.33
2022-10-10T07:00:31.545Z,67.93
2022-10-10T07:03:01.006Z,69.26
2022-10-10T07:05:29.112Z,68.82
2022-10-10T07:07:57.134Z,68.49
2022-10-10T07:10:25.319Z,68.04
2022-10-10T07:12:53.725Z,67.69
2022-10-10T07:15:22.025Z,67.48
2022-10-10T07:17:54.222Z,67.42
2022-10-10T07:20:23.944Z,66.52
2022-10-10T07:22:52.342Z,66.59
2022-10-10T07:25:20.653Z,65.98
2022-10-10T07:27:49.410Z,66.61
2022-10-10T07:30:17.775Z,65.44
2022-10-10T07:32:45.903Z,65.99
2022-10-10T07:35:14.066Z,65.79
2022-10-10T07:37:43.648Z,65.54
2022-10-10T07:40:12.257Z,65.43
2022-10-10T07:42:40.387Z,65.20
2022-10-10T07:45:10.719Z,65.61
2022-10-10T07:47:38.927Z,66.20
2022-10-10T07:50:08.755Z,65.92
2022-10-10T07:52:36.919Z,65.02
2022-10-10T07:55:07.302Z,65.46
2022-10-10T07:57:36.768Z,65.44
2022-10-10T08:00:06.889Z,65.68
2022-10-10T08:02:39.790Z,65.08
2022-10-10T08:05:08.900Z,65.84
2022-10-10T08:07:37.077Z,65.57
2022-10-10T08:10:08.365Z,65.15
2022-10-10T08:12:36.679Z,65.48
2022-10-10T08:15:05.656Z,64.65
2022-10-10T08:17:34.023Z,64.58
2022-10-10T08:20:02.062Z,64.64
2022-10-10T08:22:31.296Z,65.24
2022-10-10T08:24:59.424Z,65.35
2022-10-10T08:27:28.878Z,63.36
2022-10-10T08:29:56.925Z,64.34
2022-10-10T08:32:25.554Z,64.41
2022-10-10T08:34:53.577Z,64.92
2022-10-10T08:37:24.673Z,64.00
2022-10-10T08:39:55.229Z,62.77
2022-10-10T08:42:29.452Z,63.56
2022-10-10T08:45:00.558Z,63.50
2022-10-10T08:47:35.602Z,63.96
2022-10-10T08:50:06.314Z,62.87
2022-10-10T08:52:38.377Z,63.37
2022-10-10T08:55:09.731Z,63.89
2022-10-10T08:57:47.512Z,63.44
2022-10-10T09:00:17.969Z,63.49
2022-10-10T09:02:53.999Z,63.20
2022-10-10T09:05:29.861Z,62.00
2022-10-10T09:08:13.526Z,62.85
2022-10-10T09:10:47.137Z,62.37
2022-10-10T09:13:28.309Z,62.57
2022-10-10T09:15:58.330Z,62.68
2022-10-10T09:18:35.903Z,62.34
2022-10-10T09:21:08.292Z,62.07
2022-10-10T09:23:40.136Z,61.88
2022-10-10T09:26:11.574Z,61.82
2022-10-10T09:28:46.207Z,61.63
2022-10-10T09:31:18.033Z,61.42
2022-10-10T09:33:50.892Z,61.92
2022-10-10T09:36:22.694Z,62.18
2022-10-10T09:38:53.531Z,61.80
2022-10-10T09:41:25.735Z,61.30
2022-10-10T09:43:58.279Z,61.46
2022-10-10T09:46:26.714Z,61.52
2022-10-10T09:48:55.567Z,61.44
2022-10-10T09:51:23.667Z,60.84
2022-10-10T09:53:52.059Z,60.94
2022-10-10T09:56:22.545Z,60.31
2022-10-10T09:58:51.862Z,60.67
2022-10-10T10:01:22.764Z,60.32
2022-10-10T10:04:27.870Z,59.83
2022-10-10T10:07:07.384Z,59.90
2022-10-10T10:09:35.778Z,59.63
2022-10-10T10:12:06.404Z,59.29
2022-10-10T10:14:38.184Z,59.55
2022-10-10T10:17:09.128Z,59.76
2022-10-10T10:19:38.773Z,58.77
2022-10-10T10:22:07.117Z,58.46
2022-10-10T10:24:37.269Z,58.60
2022-10-10T10:27:15.879Z,58.15
2022-10-10T10:29:47.831Z,57.95
2022-10-10T10:32:23.550Z,58.09
2022-10-10T10:34:59.998Z,57.83
2022-10-10T10:37:32.282Z,57.86
2022-10-10T10:40:31.453Z,57.40
2022-10-10T10:43:12.040Z,57.26
2022-10-10T10:45:45.374Z,57.53
2022-10-10T10:48:23.664Z,56.73
2022-10-10T10:50:54.736Z,56.62
2022-10-10T10:53:28.310Z,56.06
2022-10-10T10:56:02.339Z,56.44
2022-10-10T10:59:22.592Z,56.26
2022-10-10T11:01:57.377Z,56.38
2022-10-10T11:05:24.737Z,56.40
2022-10-10T11:07:44.529Z,57.07
2022-10-10T11:10:18.658Z,57.04
2022-10-10T11:12:55.903Z,57.18
2022-10-10T11:15:37.507Z,57.71
2022-10-10T11:18:18.975Z,57.27
2022-10-10T11:20:51.520Z,57.80
2022-10-10T11:23:21.754Z,57.53
2022-10-10T11:25:52.057Z,57.63
2022-10-10T11:28:23.114Z,57.72
2022-10-10T11:30:55.903Z,57.48
2022-10-10T11:33:26.083Z,57.56
2022-10-10T11:36:00.310Z,57.60
2022-10-10T11:38:32.328Z,57.49
2022-10-10T11:41:03.531Z,57.67
2022-10-10T11:43:36.190Z,57.44
2022-10-10T11:46:12.590Z,57.80
2022-10-10T11:48:47.070Z,57.84
2022-10-10T11:51:23.555Z,57.80
2022-10-10T11:53:52.661Z,57.83
2022-10-10T11:56:27.888Z,57.29
2022-10-10T11:58:58.838Z,57.53
2022-10-10T12:01:29.708Z,57.28
2022-10-10T12:03:58.387Z,57.15
2022-10-10T12:06:30.225Z,57.08
2022-10-10T12:09:01.109Z,57.41
2022-10-10T12:11:33.354Z,57.87
2022-10-10T12:14:02.519Z,58.49
2022-10-10T12:16:32.941Z,58.65
2022-10-10T12:19:03.013Z,59.02
2022-10-10T12:21:32.992Z,59.38
2022-10-10T12:24:04.428Z,59.49
2022-10-10T12:27:09.734Z,59.95
2022-10-10T12:29:43.058Z,60.39
2022-10-10T12:32:28.779Z,60.53
2022-10-10T12:35:01.839Z,60.70
2022-10-10T12:37:32.771Z,60.73
2022-10-10T12:40:04.792Z,60.98
2022-10-10T12:42:34.188Z,60.96
2022-10-10T12:45:02.643Z,60.98
2022-10-10T12:48:04.415Z,60.77
2022-10-10T12:50:35.624Z,60.73
2022-10-10T12:53:06.451Z,60.35
2022-10-10T12:55:42.416Z,59.73
2022-10-10T12:58:26.044Z,59.91
2022-10-10T13:00:56.886Z,60.22
2022-10-10T13:03:29.788Z,60.43
2022-10-10T13:06:00.364Z,60.38
2022-10-10T13:08:30.188Z,60.13
2022-10-10T13:11:07.953Z,60.32
2022-10-10T13:13:36.447Z,60.77
2022-10-10T13:16:09.830Z,60.67
2022-10-10T13:18:40.548Z,60.41
2022-10-10T13:21:11.010Z,60.28
2022-10-10T13:23:42.735Z,60.55
2022-10-10T13:26:21.989Z,60.30
2022-10-10T13:28:50.785Z,60.65
2022-10-10T13:31:19.908Z,60.76
2022-10-10T13:33:48.057Z,60.88
2022-10-10T13:36:20.532Z,61.03
2022-10-10T13:38:50.342Z,60.94
2022-10-10T13:41:19.020Z,60.73
2022-10-10T13:43:47.077Z,61.08
2022-10-10T13:46:22.470Z,60.63
2022-10-10T13:48:51.688Z,60.22
2022-10-10T13:51:20.367Z,60.16
2022-10-10T13:53:52.619Z,60.02
2022-10-10T13:56:27.373Z,59.61
2022-10-10T13:58:57.369Z,59.37
2022-10-10T14:01:37.652Z,59.45
2022-10-10T14:04:20.792Z,58.93
2022-10-10T14:06:58.105Z,58.87
2022-10-10T14:09:31.025Z,59.02
2022-10-10T14:12:01.225Z,58.71
2022-10-10T14:14:35.266Z,58.33
2022-10-10T14:17:05.220Z,58.76
2022-10-10T14:19:34.283Z,58.66
2022-10-10T14:22:02.421Z,58.28
2022-10-10T14:24:32.051Z,58.44
2022-10-10T14:27:06.688Z,58.66
2022-10-10T14:29:34.836Z,58.83
2022-10-10T14:32:02.836Z,58.97
2022-10-10T14:34:30.938Z,59.01
2022-10-10T14:36:59.075Z,59.22
2022-10-10T14:39:27.152Z,58.89
2022-10-10T14:41:56.596Z,59.24
2022-10-10T14:44:24.756Z,59.73
2022-10-10T14:46:52.836Z,59.84
2022-10-10T14:49:22.404Z,60.13
2022-10-10T14:51:50.643Z,60.02
2022-10-10T14:54:18.723Z,60.43
2022-10-10T14:57:08.597Z,60.76
2022-10-10T14:59:48.981Z,61.04
2022-10-10T15:02:22.690Z,60.72
2022-10-10T15:04:51.500Z,61.15
2022-10-10T15:07:19.770Z,61.49
2022-10-10T15:12:39.256Z,61.28
2022-10-10T15:15:10.349Z,61.21
2022-10-10T15:17:38.446Z,61.51
2022-10-10T15:20:08.848Z,61.28
2022-10-10T15:22:37.467Z,61.43
2022-10-10T15:25:06.231Z,61.48
2022-10-10T15:27:34.768Z,61.79
2022-10-10T15:30:02.878Z,62.27
2022-10-10T15:32:32.343Z,62.67
2022-10-10T15:35:00.458Z,62.43
2022-10-10T15:37:28.751Z,62.68
2022-10-10T15:39:56.864Z,62.61
2022-10-10T15:42:25.088Z,63.22
2022-10-10T15:44:53.176Z,63.24
2022-10-10T15:47:21.836Z,63.62
2022-10-10T15:49:51.360Z,63.87
2022-10-10T15:52:23.073Z,64.27
2022-10-10T15:54:51.433Z,64.96
2022-10-10T15:57:20.148Z,65.09
2022-10-10T15:59:48.671Z,65.29
2022-10-10T16:02:17.120Z,65.47
2022-10-10T16:04:46.019Z,65.57
2022-10-10T16:07:34.671Z,65.76
2022-10-10T16:10:04.034Z,66.15
2022-10-10T16:12:32.169Z,66.38
2022-10-10T16:15:03.477Z,66.51
2022-10-10T16:17:34.427Z,66.73
2022-10-10T16:20:02.501Z,67.12
2022-10-10T16:22:32.053Z,67.43
2022-10-10T16:27:48.310Z,67.75
2022-10-10T16:30:16.596Z,68.06
2022-10-10T16:32:44.802Z,68.16
2022-10-10T16:35:13.002Z,68.12
2022-10-10T16:37:42.484Z,68.54
2022-10-10T16:40:11.377Z,68.76
2022-10-10T16:42:39.680Z,69.36
2022-10-10T16:45:08.959Z,69.35
2022-10-10T16:47:37.663Z,69.51
2022-10-10T16:50:06.843Z,69.37
2022-10-10T16:52:38.112Z,69.64
2022-10-10T16:55:09.322Z,69.90
2022-10-10T16:57:37.441Z,70.47
2022-10-10T17:00:06.773Z,70.74
2022-10-10T17:02:35.125Z,70.75
2022-10-10T17:05:03.284Z,70.89
2022-10-10T17:07:31.444Z,71.06
2022-10-10T17:09:59.607Z,71.55
2022-10-10T17:12:29.121Z,71.18
2022-10-10T17:14:57.232Z,71.31
2022-10-10T17:17:26.377Z,71.19
2022-10-10T17:19:55.304Z,71.75
2022-10-10T17:22:24.607Z,71.82
2022-10-10T17:24:53.694Z,72.19
2022-10-10T17:27:23.078Z,72.14
2022-10-10T17:29:54.268Z,72.10
2022-10-10T17:32:23.783Z,72.11
2022-10-10T17:34:53.561Z,72.30
2022-10-10T17:37:21.630Z,72.66
2022-10-10T17:39:49.711Z,72.58
2022-10-10T17:42:20.294Z,72.31
2022-10-10T17:44:52.502Z,72.56
2022-10-10T17:47:25.855Z,72.22
2022-10-10T17:49:57.085Z,72.63
2022-10-10T17:52:25.931Z,72.60
2022-10-10T17:54:54.735Z,72.69
2022-10-10T17:57:24.710Z,72.63
2022-10-10T17:59:52.853Z,72.95
2022-10-10T18:02:23.503Z,73.24
2022-10-10T18:04:54.401Z,73.33
2022-10-10T18:07:24.454Z,73.24
2022-10-10T18:09:53.047Z,73.59
2022-10-10T18:12:22.668Z,73.65
2022-10-10T18:14:50.971Z,73.65
2022-10-10T18:17:20.575Z,73.80
2022-10-10T18:19:49.805Z,73.96
2022-10-10T18:22:23.363Z,73.81
2022-10-10T18:24:53.955Z,74.39
2022-10-10T18:27:25.758Z,74.22
2022-10-10T18:29:58.286Z,74.33
2022-10-10T18:32:27.107Z,74.68
2022-10-10T18:34:56.858Z,74.15
2022-10-10T18:37:27.505Z,74.48
2022-10-10T18:39:56.045Z,74.91
2022-10-10T18:42:25.727Z,74.64
2022-10-10T18:44:54.564Z,74.96
2022-10-10T18:47:23.971Z,74.94
2022-10-10T18:49:52.916Z,75.09
2022-10-10T18:52:21.942Z,74.92
2022-10-10T18:54:52.229Z,75.11
2022-10-10T18:57:20.644Z,75.47
2022-10-10T18:59:49.731Z,75.86
2022-10-10T19:02:18.755Z,76.06
2022-10-10T19:04:48.784Z,75.93
2022-10-10T19:07:17.936Z,75.74
2022-10-10T19:09:46.367Z,75.62
2022-10-10T19:12:18.212Z,76.13
2022-10-10T19:14:48.553Z,76.50
2022-10-10T19:17:17.738Z,76.19
2022-10-10T19:19:48.137Z,76.21
2022-10-10T19:22:17.503Z,76.20
2022-10-10T19:24:45.552Z,76.00
2022-10-10T19:27:16.286Z,76.66
2022-10-10T19:29:45.779Z,76.32
2022-10-10T19:32:17.648Z,76.32
2022-10-10T19:34:49.085Z,76.82
2022-10-10T19:37:17.289Z,76.86
2022-10-10T19:39:45.327Z,76.92
2022-10-10T19:42:14.027Z,77.02
2022-10-10T19:44:44.587Z,76.92
2022-10-10T19:47:12.843Z,77.49
2022-10-10T19:49:41.139Z,76.63
2022-10-10T19:52:09.841Z,76.54
2022-10-10T19:54:37.983Z,77.01
2022-10-10T19:57:06.868Z,76.91
2022-10-10T19:59:35.146Z,77.12
2022-10-10T20:02:05.215Z,76.48
2022-10-10T20:04:33.278Z,76.98
2022-10-10T20:07:01.811Z,77.03
2022-10-10T20:09:32.599Z,76.97
2022-10-10T20:12:01.864Z,76.85
2022-10-10T20:14:29.941Z,76.72
2022-10-10T20:16:58.008Z,77.34
2022-10-10T20:19:28.570Z,76.82
2022-10-10T20:21:56.787Z,77.29
2022-10-10T20:24:25.864Z,77.28
2022-10-10T20:26:54.786Z,77.10
2022-10-10T20:29:23.926Z,77.17
2022-10-10T20:31:53.411Z,77.22
2022-10-10T20:34:21.889Z,77.22
2022-10-10T20:36:53.689Z,77.28
2022-10-10T20:39:21.799Z,77.45
2022-10-10T20:41:49.874Z,77.25
2022-10-10T20:44:18.438Z,76.95
2022-10-10T20:46:47.265Z,77.51
2022-10-10T20:49:17.875Z,77.87
2022-10-10T20:51:48.766Z,78.10
2022-10-10T20:54:19.313Z,78.45
2022-10-10T20:56:49.181Z,78.00
2022-10-10T20:59:17.809Z,78.30
2022-10-10T21:01:46.379Z,78.31
2022-10-10T21:04:15.147Z,78.41
2022-10-10T21:06:44.518Z,78.33
2022-10-10T21:09:14.554Z,78.48
2022-10-10T21:11:48.628Z,78.02
2022-10-10T21:14:19.188Z,78.18
2022-10-10T21:16:48.378Z,78.06
2022-10-10T21:19:16.481Z,78.42
2022-10-10T21:21:44.711Z,78.73
2022-10-10T21:24:13.423Z,78.96
2022-10-10T21:26:45.533Z,78.17
2022-10-10T21:29:13.603Z,78.46
2022-10-10T21:31:42.653Z,78.80
2022-10-10T21:34:17.435Z,78.81
2022-10-10T21:36:50.689Z,79.03
2022-10-10T21:39:18.957Z,79.24
2022-10-10T21:41:51.076Z,79.35
2022-10-10T21:44:20.730Z,80.03
2022-10-10T21:46:50.004Z,79.88
2022-10-10T21:49:19.103Z,79.45
2022-10-10T21:51:50.031Z,79.68
2022-10-10T21:54:18.116Z,79.99
2022-10-10T21:56:48.201Z,80.09
2022-10-10T21:59:17.684Z,80.00
2022-10-10T22:01:47.227Z,80.33
2022-10-10T22:04:15.976Z,80.39
2022-10-10T22:06:45.243Z,80.43
2022-10-10T22:09:14.901Z,80.52
2022-10-10T22:11:42.986Z,80.58
2022-10-10T22:14:11.053Z,81.14
2022-10-10T22:16:41.489Z,81.36
2022-10-10T22:19:10.917Z,81.25
2022-10-10T22:21:38.991Z,80.83
2022-10-10T22:24:08.544Z,80.58
2022-10-10T22:26:37.303Z,81.23
2022-10-10T22:29:06.948Z,81.35
2022-10-10T22:31:37.733Z,81.18
2022-10-10T22:34:07.630Z,81.42
2022-10-10T22:36:37.102Z,81.85
2022-10-10T22:39:07.342Z,81.13
2022-10-10T22:41:35.650Z,81.59
2022-10-10T22:44:04.404Z,81.86
2022-10-10T22:46:32.461Z,81.84
2022-10-10T22:49:01.154Z,81.64
2022-10-10T22:51:30.788Z,82.18
2022-10-10T22:53:58.827Z,82.08
2022-10-10T22:56:27.237Z,81.82
2022-10-10T22:58:55.343Z,82.25
2022-10-10T23:01:26.097Z,81.46
2022-10-10T23:03:56.344Z,81.72
2022-10-10T23:06:24.434Z,81.22
2022-10-10T23:08:55.007Z,81.30
2022-10-10T23:11:23.163Z,81.74
2022-10-10T23:13:52.103Z,81.64
2022-10-10T23:16:20.299Z,81.88
2022-10-10T23:18:49.814Z,81.48
2022-10-10T23:21:17.902Z,81.49
2022-10-10T23:23:47.398Z,81.73
2022-10-10T23:26:17.088Z,81.25
2022-10-10T23:28:46.263Z,81.73
2022-10-10T23:31:15.135Z,81.86
2022-10-10T23:33:44.921Z,81.62
2022-10-10T23:36:14.808Z,81.35
2022-10-10T23:38:44.422Z,81.28
2022-10-10T23:41:13.901Z,81.96
2022-10-10T23:43:43.284Z,82.00
2022-10-10T23:46:11.905Z,81.72
2022-10-10T23:48:39.975Z,81.50
2022-10-10T23:51:09.103Z,81.48
2022-10-10T23:53:40.880Z,81.07
2022-10-10T23:56:09.475Z,81.38
2022-10-10T23:58:37.514Z,81.76
